createdAt,value
2019-03-04T00:00:37.164Z,2.30
2019-03-04T00:03:05.436Z,2.50
2019-03-04T00:05:33.727Z,2.60
2019-03-04T00:08:01.956Z,2.30
2019-03-04T00:10:30.210Z,2.45
2019-03-04T00:12:58.465Z,2.80
2019-03-04T00:15:26.713Z,2.70
2019-03-04T00:17:54.947Z,2.50
2019-03-04T00:20:23.197Z,2.45
2019-03-04T00:22:51.446Z,2.75
2019-03-04T00:25:19.714Z,2.10
2019-03-04T00:27:47.969Z,2.55
2019-03-04T00:30:16.219Z,2.50
2019-03-04T00:32:45.211Z,2.62
2019-03-04T00:35:13.590Z,2.80
2019-03-04T00:37:41.987Z,2.60
2019-03-04T00:40:12.717Z,2.50
2019-03-04T00:42:40.991Z,2.72
2019-03-04T00:45:10.793Z,2.60
2019-03-04T00:47:39.070Z,2.58
2019-03-04T00:50:10.558Z,2.83
2019-03-04T00:52:38.806Z,2.72
2019-03-04T00:55:08.207Z,2.37
2019-03-04T00:57:36.533Z,2.37
2019-03-04T01:00:08.044Z,2.40
2019-03-04T01:02:36.315Z,2.72
2019-03-04T01:05:05.717Z,2.40
2019-03-04T01:07:33.996Z,2.98
2019-03-04T01:10:02.252Z,2.30
2019-03-04T01:12:30.518Z,2.80
2019-03-04T01:14:58.786Z,2.60
2019-03-04T01:17:27.030Z,2.25
2019-03-04T01:19:55.320Z,2.27
2019-03-04T01:22:23.554Z,2.27
2019-03-04T01:24:51.823Z,2.00
2019-03-04T01:27:20.084Z,2.47
2019-03-04T01:29:48.336Z,2.22
2019-03-04T01:32:16.590Z,2.20
2019-03-04T01:34:44.829Z,2.65
2019-03-04T01:37:13.092Z,1.85
2019-03-04T01:39:41.323Z,2.33
2019-03-04T01:42:09.611Z,2.55
2019-03-04T01:44:37.850Z,2.10
2019-03-04T01:47:06.127Z,2.27
2019-03-04T01:49:34.377Z,2.50
2019-03-04T01:52:02.642Z,2.62
2019-03-04T01:54:31.250Z,2.20
2019-03-04T01:56:59.524Z,2.55
2019-03-04T01:59:27.794Z,2.47
2019-03-04T02:01:56.110Z,2.60
2019-03-04T02:04:24.391Z,2.50
2019-03-04T02:06:52.615Z,2.77
2019-03-04T02:09:21.039Z,3.37
2019-03-04T02:11:49.276Z,2.85
2019-03-04T02:14:17.535Z,3.40
2019-03-04T02:16:45.775Z,3.67
2019-03-04T02:19:14.019Z,3.52
2019-03-04T02:21:42.294Z,2.65
2019-03-04T02:24:13.798Z,2.80
2019-03-04T02:26:42.055Z,2.37
2019-03-04T02:29:10.314Z,3.55
2019-03-04T02:31:38.594Z,2.58
2019-03-04T02:34:06.843Z,2.83
2019-03-04T02:36:35.096Z,2.52
2019-03-04T02:39:04.297Z,3.15
2019-03-04T02:41:32.565Z,3.20
2019-03-04T02:44:00.952Z,2.90
2019-03-04T02:46:29.287Z,2.52
2019-03-04T02:48:57.555Z,3.17
2019-03-04T02:51:25.823Z,2.52
2019-03-04T02:53:54.059Z,2.40
2019-03-04T02:56:22.336Z,2.50
2019-03-04T02:58:50.657Z,2.42
2019-03-04T03:01:18.911Z,2.50
2019-03-04T03:03:47.179Z,2.50
2019-03-04T03:06:15.520Z,2.67
2019-03-04T03:08:43.803Z,2.15
2019-03-04T03:11:12.070Z,2.52
2019-03-04T03:13:40.327Z,2.15
2019-03-04T03:16:11.092Z,2.62
2019-03-04T03:18:39.425Z,2.50
2019-03-04T03:21:07.743Z,2.80
2019-03-04T03:23:36.035Z,3.20
2019-03-04T03:26:04.278Z,3.08
2019-03-04T03:28:32.563Z,3.08
2019-03-04T03:31:00.842Z,2.95
2019-03-04T03:33:29.083Z,2.77
2019-03-04T03:35:57.340Z,2.90
2019-03-04T03:38:25.597Z,3.02
2019-03-04T03:40:53.855Z,3.65
2019-03-04T03:43:22.096Z,2.95
2019-03-04T03:45:50.371Z,3.58
2019-03-04T03:48:18.661Z,3.60
2019-03-04T03:50:46.984Z,2.83
2019-03-04T03:53:15.252Z,3.62
2019-03-04T03:55:43.507Z,2.90
2019-03-04T03:58:11.748Z,3.87
2019-03-04T04:00:39.994Z,3.45
2019-03-04T04:03:08.232Z,3.95
2019-03-04T04:05:36.479Z,4.45
2019-03-04T04:08:04.726Z,3.60
2019-03-04T04:10:32.989Z,4.37
2019-03-04T04:13:01.245Z,3.70
2019-03-04T04:15:29.492Z,1.82
2019-03-04T04:17:57.730Z,1.60
2019-03-04T04:20:25.998Z,1.90
2019-03-04T04:22:54.244Z,1.55
2019-03-04T04:25:22.498Z,1.42
2019-03-04T04:27:50.756Z,1.32
2019-03-04T04:30:20.680Z,1.50
2019-03-04T04:32:48.965Z,1.35
2019-03-04T04:35:17.302Z,1.60
2019-03-04T04:37:45.541Z,1.47
2019-03-04T04:40:14.315Z,1.30
2019-03-04T04:42:42.583Z,1.42
2019-03-04T04:45:10.941Z,1.57
2019-03-04T04:47:40.891Z,3.22
2019-03-04T04:50:12.353Z,3.12
2019-03-04T04:52:40.611Z,3.00
2019-03-04T04:55:08.855Z,1.92
2019-03-04T04:57:37.117Z,2.35
2019-03-04T05:00:08.773Z,1.47
2019-03-04T05:02:37.006Z,1.52
2019-03-04T05:05:06.091Z,1.80
2019-03-04T05:07:34.345Z,2.22
2019-03-04T05:10:02.589Z,2.45
2019-03-04T05:12:30.835Z,2.10
2019-03-04T05:14:59.080Z,2.05
2019-03-04T05:17:27.342Z,2.12
2019-03-04T05:19:55.598Z,2.62
2019-03-04T05:22:23.857Z,2.90
2019-03-04T05:24:52.151Z,2.75
2019-03-04T05:27:20.446Z,3.42
2019-03-04T05:29:48.691Z,2.98
2019-03-04T05:32:16.931Z,3.15
2019-03-04T05:34:45.199Z,3.67
2019-03-04T05:37:13.460Z,3.70
2019-03-04T05:39:41.719Z,3.30
2019-03-04T05:42:09.984Z,3.50
2019-03-04T05:44:38.251Z,3.30
2019-03-04T05:47:06.518Z,2.98
2019-03-04T05:49:34.777Z,2.72
2019-03-04T05:52:03.007Z,2.50
2019-03-04T05:54:31.272Z,2.75
2019-03-04T05:56:59.528Z,2.27
2019-03-04T05:59:27.774Z,2.20
2019-03-04T06:01:59.263Z,3.02
2019-03-04T06:04:27.518Z,2.60
2019-03-04T06:06:57.392Z,3.05
2019-03-04T06:09:25.628Z,3.02
2019-03-04T06:12:37.620Z,3.10
2019-03-04T06:14:51.621Z,3.25
2019-03-04T06:17:21.644Z,2.58
2019-03-04T06:19:50.025Z,3.30
2019-03-04T06:22:37.858Z,4.05
2019-03-04T06:25:09.439Z,3.20
2019-03-04T06:27:39.302Z,4.00
2019-03-04T06:30:31.807Z,4.08
2019-03-04T06:33:00.059Z,4.40
2019-03-04T06:35:28.331Z,4.37
2019-03-04T06:37:56.575Z,4.42
2019-03-04T06:40:24.834Z,5.05
2019-03-04T06:42:53.076Z,5.00
2019-03-04T06:45:21.310Z,4.45
2019-03-04T06:47:49.554Z,4.62
2019-03-04T06:50:21.083Z,4.75
2019-03-04T06:52:49.339Z,4.90
2019-03-04T06:55:20.880Z,4.70
2019-03-04T06:57:49.191Z,4.20
2019-03-04T07:00:20.715Z,3.80
2019-03-04T07:02:48.963Z,2.12
2019-03-04T07:05:20.491Z,1.12
2019-03-04T07:07:48.718Z,1.20
2019-03-04T07:10:16.986Z,1.27
2019-03-04T07:15:34.015Z,1.82
2019-03-04T07:18:02.280Z,1.87
2019-03-04T07:20:30.555Z,3.65
2019-03-04T07:22:58.787Z,1.60
2019-03-04T07:25:27.047Z,1.52
2019-03-04T07:27:55.308Z,1.65
2019-03-04T07:30:23.558Z,1.25
2019-03-04T07:32:51.831Z,1.65
2019-03-04T07:35:20.074Z,1.47
2019-03-04T07:37:51.607Z,1.15
2019-03-04T07:40:20.883Z,1.30
2019-03-04T07:42:49.166Z,1.30
2019-03-04T07:45:17.423Z,0.90
2019-03-04T07:47:45.674Z,0.80
2019-03-04T07:50:13.947Z,1.02
2019-03-04T07:52:42.178Z,1.25
2019-03-04T07:55:10.419Z,1.22
2019-03-04T07:57:38.671Z,1.40
2019-03-04T08:00:10.316Z,2.12
2019-03-04T08:02:38.567Z,1.77
2019-03-04T08:05:09.934Z,1.90
2019-03-04T08:07:40.804Z,1.37
2019-03-04T08:10:12.407Z,1.17
2019-03-04T08:12:43.993Z,1.00
2019-03-04T08:15:12.250Z,1.20
2019-03-04T08:17:40.550Z,1.40
2019-03-04T08:20:08.808Z,1.17
2019-03-04T08:22:37.073Z,1.60
2019-03-04T08:25:08.131Z,1.45
2019-03-04T08:27:36.388Z,1.62
2019-03-04T08:30:08.000Z,1.72
2019-03-04T08:32:36.274Z,1.70
2019-03-04T08:35:04.606Z,2.02
2019-03-04T08:37:33.322Z,1.45
2019-03-04T08:40:01.578Z,1.85
2019-03-04T08:42:29.907Z,2.40
2019-03-04T08:44:58.171Z,1.80
2019-03-04T08:47:26.495Z,2.33
2019-03-04T08:49:54.727Z,2.02
2019-03-04T08:52:22.999Z,1.77
2019-03-04T08:54:51.262Z,1.65
2019-03-04T08:57:19.582Z,1.92
2019-03-04T08:59:47.835Z,1.80
2019-03-04T09:02:16.081Z,1.80
2019-03-04T09:04:44.387Z,2.02
2019-03-04T09:07:12.640Z,1.82
2019-03-04T09:09:40.886Z,1.85
2019-03-04T09:12:09.120Z,2.00
2019-03-04T09:14:37.403Z,2.08
2019-03-04T09:17:05.659Z,3.17
2019-03-04T09:19:33.991Z,2.30
2019-03-04T09:22:02.262Z,2.08
2019-03-04T09:24:30.527Z,2.55
2019-03-04T09:26:58.810Z,2.40
2019-03-04T09:29:27.070Z,2.70
2019-03-04T09:31:55.347Z,2.47
2019-03-04T09:34:23.597Z,2.22
2019-03-04T09:36:51.871Z,2.65
2019-03-04T09:39:20.182Z,2.47
2019-03-04T09:41:49.499Z,2.17
2019-03-04T09:44:17.781Z,2.50
2019-03-04T09:46:46.040Z,2.27
2019-03-04T09:49:14.319Z,2.20
2019-03-04T09:51:42.568Z,2.72
2019-03-04T09:54:10.837Z,2.35
2019-03-04T09:56:39.075Z,2.40
2019-03-04T09:59:07.365Z,2.30
2019-03-04T10:01:38.879Z,2.37
2019-03-04T10:04:10.421Z,2.45
2019-03-04T10:06:41.957Z,2.62
2019-03-04T10:09:13.539Z,2.92
2019-03-04T10:11:45.057Z,3.37
2019-03-04T10:14:16.603Z,3.00
2019-03-04T10:16:48.116Z,3.70
2019-03-04T10:19:19.631Z,2.72
2019-03-04T10:21:51.140Z,2.77
2019-03-04T10:24:22.665Z,2.87
2019-03-04T10:26:54.167Z,3.20
2019-03-04T10:29:25.661Z,3.35
2019-03-04T10:31:57.202Z,4.03
2019-03-04T10:34:28.779Z,3.25
2019-03-04T10:37:00.265Z,3.27
2019-03-04T10:39:31.795Z,3.52
2019-03-04T10:42:03.280Z,3.58
2019-03-04T10:47:31.878Z,3.12
2019-03-04T10:50:00.250Z,3.70
2019-03-04T10:52:28.570Z,3.40
2019-03-04T10:54:56.849Z,3.58
2019-03-04T10:57:25.091Z,3.22
2019-03-04T10:59:53.375Z,4.28
2019-03-04T11:02:21.650Z,3.70
2019-03-04T11:04:49.883Z,3.65
2019-03-04T11:07:18.143Z,3.50
2019-03-04T11:09:46.388Z,4.10
2019-03-04T11:12:14.661Z,3.95
2019-03-04T11:14:42.939Z,4.12
2019-03-04T11:17:11.194Z,3.65
2019-03-04T11:19:39.468Z,3.47
2019-03-04T11:22:07.882Z,4.05
2019-03-04T11:24:36.148Z,3.75
2019-03-04T11:27:04.419Z,3.42
2019-03-04T11:29:32.662Z,4.92
2019-03-04T11:32:00.934Z,3.77
2019-03-04T11:34:29.193Z,3.55
2019-03-04T11:36:57.446Z,3.33
2019-03-04T11:39:27.436Z,3.62
2019-03-04T11:41:55.683Z,3.95
2019-03-04T11:44:23.935Z,4.17
2019-03-04T11:46:52.204Z,3.40
2019-03-04T11:49:20.472Z,4.00
2019-03-04T11:51:48.703Z,3.52
2019-03-04T11:54:16.990Z,3.92
2019-03-04T11:56:46.078Z,3.75
2019-03-04T11:59:14.343Z,3.50
2019-03-04T12:01:44.655Z,3.75
2019-03-04T12:04:12.904Z,3.98
2019-03-04T12:06:43.158Z,3.42
2019-03-04T12:09:12.773Z,3.95
2019-03-04T12:11:41.119Z,4.53
2019-03-04T12:14:09.388Z,4.42
2019-03-04T12:16:37.696Z,3.95
2019-03-04T12:19:05.951Z,4.08
2019-03-04T12:21:34.388Z,3.98
2019-03-04T12:24:02.661Z,3.40
2019-03-04T12:26:31.001Z,3.47
2019-03-04T12:28:59.285Z,3.85
2019-03-04T12:31:29.184Z,3.83
2019-03-04T12:33:57.443Z,3.85
2019-03-04T12:36:25.701Z,3.80
2019-03-04T12:38:53.978Z,3.85
2019-03-04T12:41:22.227Z,3.37
2019-03-04T12:43:50.476Z,4.92
2019-03-04T12:46:21.409Z,3.30
2019-03-04T12:48:50.313Z,3.25
2019-03-04T12:51:23.090Z,3.75
2019-03-04T12:53:48.752Z,3.87
2019-03-04T12:56:21.640Z,3.75
2019-03-04T12:58:49.901Z,3.25
2019-03-04T13:01:18.142Z,3.12
2019-03-04T13:03:46.908Z,3.92
2019-03-04T13:06:15.179Z,3.80
2019-03-04T13:08:43.462Z,4.10
2019-03-04T13:11:11.730Z,3.50
2019-03-04T13:13:39.991Z,3.65
2019-03-04T13:16:08.255Z,3.50
2019-03-04T13:18:36.570Z,3.22
2019-03-04T13:21:04.843Z,3.35
2019-03-04T13:23:33.105Z,3.42
2019-03-04T13:26:02.609Z,3.27
2019-03-04T13:28:30.896Z,3.50
2019-03-04T13:30:59.143Z,3.60
2019-03-04T13:33:27.465Z,3.42
2019-03-04T13:35:55.749Z,3.25
2019-03-04T13:38:24.037Z,3.25
2019-03-04T13:40:52.290Z,3.12
2019-03-04T13:43:20.554Z,3.35
2019-03-04T13:45:48.832Z,3.12
2019-03-04T13:48:17.161Z,4.20
2019-03-04T13:50:49.476Z,2.87
2019-03-04T13:53:17.791Z,3.33
2019-03-04T13:55:46.105Z,3.40
2019-03-04T13:58:14.431Z,3.45
2019-03-04T14:00:43.263Z,2.92
2019-03-04T14:03:13.791Z,3.72
2019-03-04T14:05:42.057Z,3.25
2019-03-04T14:08:10.330Z,3.12
2019-03-04T14:10:41.218Z,3.27
2019-03-04T14:13:11.099Z,3.10
2019-03-04T14:15:41.799Z,3.37
2019-03-04T14:18:10.077Z,2.70
2019-03-04T14:20:38.327Z,2.77
2019-03-04T14:23:06.568Z,2.58
2019-03-04T14:25:34.842Z,3.83
2019-03-04T14:28:03.090Z,3.30
2019-03-04T14:30:31.351Z,2.95
2019-03-04T14:32:59.650Z,3.00
2019-03-04T14:35:27.914Z,3.10
2019-03-04T14:37:56.198Z,3.02
2019-03-04T14:40:24.578Z,3.65
2019-03-04T14:42:54.939Z,3.62
2019-03-04T14:45:25.031Z,3.62
2019-03-04T14:47:53.300Z,3.00
2019-03-04T14:50:21.612Z,3.40
2019-03-04T14:52:49.875Z,3.22
2019-03-04T14:55:20.928Z,3.52
2019-03-04T14:57:49.200Z,3.40
2019-03-04T15:00:21.675Z,4.53
2019-03-04T15:02:50.261Z,3.37
2019-03-04T15:05:18.650Z,3.65
2019-03-04T15:07:46.918Z,3.40
2019-03-04T15:10:15.194Z,3.35
2019-03-04T15:12:43.469Z,3.70
2019-03-04T15:15:14.971Z,3.05
2019-03-04T15:17:43.240Z,3.70
2019-03-04T15:20:14.769Z,3.55
2019-03-04T15:22:43.030Z,3.65
2019-03-04T15:25:14.091Z,3.52
2019-03-04T15:27:42.438Z,3.52
2019-03-04T15:30:12.365Z,3.42
2019-03-04T15:32:40.600Z,3.20
2019-03-04T15:35:09.857Z,2.98
2019-03-04T15:37:38.115Z,3.67
2019-03-04T15:40:09.888Z,3.60
2019-03-04T15:42:38.120Z,3.67
2019-03-04T15:45:09.344Z,3.62
2019-03-04T15:47:37.779Z,3.30
2019-03-04T15:50:08.351Z,4.28
2019-03-04T15:52:36.699Z,4.37
2019-03-04T15:55:07.368Z,3.92
2019-03-04T15:57:35.726Z,4.87
2019-03-04T16:00:07.599Z,3.92
2019-03-04T16:02:35.859Z,4.50
2019-03-04T16:07:54.952Z,3.62
2019-03-04T16:10:27.143Z,4.45
2019-03-04T16:12:55.421Z,4.45
2019-03-04T16:15:23.714Z,4.40
2019-03-04T16:17:51.993Z,4.97
2019-03-04T16:20:21.465Z,4.00
2019-03-04T16:22:51.545Z,3.83
2019-03-04T16:25:20.040Z,3.90
2019-03-04T16:27:48.274Z,4.10
2019-03-04T16:30:19.799Z,3.42
2019-03-04T16:32:48.059Z,3.70
2019-03-04T16:35:16.323Z,3.33
2019-03-04T16:37:44.582Z,2.95
2019-03-04T16:40:15.363Z,4.22
2019-03-04T16:42:43.705Z,4.83
2019-03-04T16:45:14.977Z,4.45
2019-03-04T16:47:43.213Z,3.08
2019-03-04T16:50:14.304Z,3.95
2019-03-04T16:52:44.055Z,3.75
2019-03-04T16:55:14.246Z,3.77
2019-03-04T16:57:42.490Z,3.37
2019-03-04T17:00:13.532Z,3.87
2019-03-04T17:02:41.788Z,4.10
2019-03-04T17:05:12.183Z,4.87
2019-03-04T17:07:40.435Z,3.98
2019-03-04T17:10:11.395Z,4.40
2019-03-04T17:12:39.655Z,4.20
2019-03-04T17:15:11.201Z,4.50
2019-03-04T17:17:39.443Z,3.75
2019-03-04T17:20:10.718Z,4.03
2019-03-04T17:22:38.967Z,3.55
2019-03-04T17:25:10.141Z,4.10
2019-03-04T17:27:38.418Z,3.75
2019-03-04T17:30:09.882Z,4.20
2019-03-04T17:32:38.202Z,4.00
2019-03-04T17:35:08.282Z,4.30
2019-03-04T17:37:36.546Z,4.53
2019-03-04T17:40:07.903Z,3.83
2019-03-04T17:42:36.152Z,3.77
2019-03-04T17:45:06.464Z,4.95
2019-03-04T17:47:34.795Z,4.65
2019-03-04T17:50:03.333Z,5.12
2019-03-04T17:52:31.667Z,4.05
2019-03-04T17:54:59.936Z,4.65
2019-03-04T17:57:28.207Z,4.15
2019-03-04T17:59:56.467Z,4.50
2019-03-04T18:02:24.816Z,3.95
2019-03-04T18:04:53.062Z,4.00
2019-03-04T18:07:21.307Z,4.22
2019-03-04T18:09:49.559Z,4.25
2019-03-04T18:12:17.929Z,4.03
2019-03-04T18:14:46.231Z,4.47
2019-03-04T18:17:14.528Z,4.20
2019-03-04T18:19:42.794Z,3.83
2019-03-04T18:22:11.072Z,3.85
2019-03-04T18:24:39.475Z,4.03
2019-03-04T18:27:07.810Z,3.95
2019-03-04T18:29:39.435Z,4.15
2019-03-04T18:32:11.019Z,4.03
2019-03-04T18:34:42.542Z,4.58
2019-03-04T18:37:14.074Z,4.58
2019-03-04T18:39:45.633Z,4.37
2019-03-04T18:42:17.214Z,4.67
2019-03-04T18:44:48.702Z,5.17
2019-03-04T18:47:20.223Z,4.78
2019-03-04T18:49:48.462Z,3.85
2019-03-04T18:52:16.708Z,4.67
2019-03-04T18:54:45.075Z,4.72
2019-03-04T18:57:13.380Z,4.28
2019-03-04T18:59:41.655Z,4.80
2019-03-04T19:02:09.982Z,4.65
2019-03-04T19:04:38.233Z,4.42
2019-03-04T19:07:06.479Z,5.17
2019-03-04T19:09:34.712Z,4.87
2019-03-04T19:12:02.986Z,5.12
2019-03-04T19:14:31.346Z,4.75
2019-03-04T19:16:59.633Z,4.67
2019-03-04T19:19:27.979Z,5.22
2019-03-04T19:21:56.246Z,5.60
2019-03-04T19:24:24.535Z,5.15
2019-03-04T19:26:52.790Z,5.10
2019-03-04T19:29:21.066Z,5.12
2019-03-04T19:31:49.295Z,4.65
2019-03-04T19:34:19.187Z,4.70
2019-03-04T19:36:47.450Z,5.28
2019-03-04T19:39:15.716Z,4.95
2019-03-04T19:41:43.988Z,4.58
2019-03-04T19:44:12.243Z,4.85
2019-03-04T19:46:40.517Z,5.15
2019-03-04T19:49:08.752Z,4.72
2019-03-04T19:51:36.992Z,4.17
2019-03-04T19:54:05.232Z,4.25
2019-03-04T19:56:33.496Z,4.35
2019-03-04T19:59:01.864Z,3.90
2019-03-04T20:01:30.206Z,3.72
2019-03-04T20:03:58.465Z,3.70
2019-03-04T20:06:26.758Z,3.45
2019-03-04T20:08:54.999Z,3.22
2019-03-04T20:11:29.306Z,3.08
2019-03-04T20:13:57.614Z,3.55
2019-03-04T20:16:25.909Z,3.45
2019-03-04T20:18:54.225Z,2.80
2019-03-04T20:21:22.465Z,2.85
2019-03-04T20:23:50.717Z,3.45
2019-03-04T20:26:18.981Z,3.17
2019-03-04T20:28:47.311Z,3.10
2019-03-04T20:31:15.597Z,3.30
2019-03-04T20:33:45.034Z,3.90
2019-03-04T20:36:13.675Z,3.22
2019-03-04T20:38:44.675Z,3.40
2019-03-04T20:41:12.932Z,3.15
2019-03-04T20:43:41.198Z,3.90
2019-03-04T20:46:09.464Z,3.58
2019-03-04T20:48:37.727Z,3.35
2019-03-04T20:51:06.034Z,3.52
2019-03-04T20:53:34.389Z,3.40
2019-03-04T20:56:02.638Z,3.20
2019-03-04T20:58:30.901Z,3.52
2019-03-04T21:00:59.211Z,3.58
2019-03-04T21:03:34.945Z,3.42
2019-03-04T21:05:58.528Z,3.40
2019-03-04T21:08:26.824Z,3.58
2019-03-04T21:10:55.201Z,3.90
2019-03-04T21:13:34.851Z,3.85
2019-03-04T21:15:54.956Z,3.75
2019-03-04T21:18:23.293Z,3.30
2019-03-04T21:20:51.666Z,3.75
2019-03-04T21:23:19.941Z,3.22
2019-03-04T21:25:51.082Z,2.87
2019-03-04T21:28:22.607Z,3.52
2019-03-04T21:31:11.931Z,3.25
2019-03-04T21:33:43.536Z,3.30
2019-03-04T21:36:17.911Z,3.42
2019-03-04T21:38:46.162Z,3.58
2019-03-04T21:41:17.674Z,3.95
2019-03-04T21:43:49.191Z,4.45
2019-03-04T21:46:20.906Z,3.75
2019-03-04T21:48:52.560Z,3.75
2019-03-04T21:51:24.080Z,4.08
2019-03-04T21:53:52.948Z,3.75
2019-03-04T21:56:24.497Z,4.50
2019-03-04T21:58:54.690Z,4.33
2019-03-04T22:01:45.246Z,4.20
2019-03-04T22:04:13.515Z,4.22
2019-03-04T22:06:42.024Z,3.80
2019-03-04T22:09:10.268Z,4.17
2019-03-04T22:11:38.535Z,4.08
2019-03-04T22:14:06.792Z,3.92
2019-03-04T22:16:35.110Z,3.95
2019-03-04T22:19:03.514Z,3.55
2019-03-04T22:21:31.857Z,4.65
2019-03-04T22:24:00.986Z,3.98
2019-03-04T22:26:29.403Z,5.25
2019-03-04T22:28:57.716Z,3.80
2019-03-04T22:31:25.974Z,3.60
2019-03-04T22:33:54.212Z,3.95
2019-03-04T22:36:24.168Z,3.95
2019-03-04T22:38:52.446Z,4.55
2019-03-04T22:41:20.792Z,4.30
2019-03-04T22:43:49.134Z,3.85
2019-03-04T22:46:17.666Z,4.00
2019-03-04T22:48:46.002Z,3.67
2019-03-04T22:51:14.333Z,3.62
2019-03-04T22:53:42.614Z,3.98
2019-03-04T22:56:11.805Z,3.62
2019-03-04T22:58:40.049Z,3.62
2019-03-04T23:01:13.213Z,4.03
2019-03-04T23:03:41.548Z,3.95
2019-03-04T23:06:13.117Z,3.67
2019-03-04T23:08:41.393Z,3.70
2019-03-04T23:11:09.658Z,4.15
2019-03-04T23:13:41.175Z,3.85
2019-03-04T23:16:12.670Z,4.17
2019-03-04T23:18:40.943Z,3.90
2019-03-04T23:21:09.208Z,3.30
2019-03-04T23:23:37.485Z,4.97
2019-03-04T23:26:05.978Z,3.33
2019-03-04T23:28:34.244Z,4.35
2019-03-04T23:31:02.629Z,3.77
2019-03-04T23:33:30.952Z,3.77
2019-03-04T23:35:59.238Z,3.67
2019-03-04T23:38:27.475Z,3.30
2019-03-04T23:40:55.755Z,4.05
2019-03-04T23:43:24.067Z,3.92
2019-03-04T23:45:52.305Z,3.47
2019-03-04T23:48:20.556Z,3.15
2019-03-04T23:50:48.810Z,3.87
2019-03-04T23:53:17.127Z,3.30
2019-03-04T23:55:45.388Z,4.55
2019-03-04T23:58:13.646Z,4.53
